الصفحة الرئيسية
METAR-TAF:

METAR-TAF

مطار :

Pago Pago, جزر الولايات المتحدة البعيدة الصغيرة

دائرة عرض: 14-20S, خط طول: 170-43W, ارتفاع: 3 متر

مراقبة الطقس الحالي

تاريخ ووقت الإصدار 44 دقيقة قبل الساعة 05:50UTC
ريح 4 عقدةمن اتجاهات متغيرة
درجة الحرارة 26°درجة مئوية
الرطوبة 89%
ضغط 1009 hPa
الرؤية: 3.2 كم
ملبد بالغيوم على ارتفاع 1700 قدم
زخات من الأمطار الخفيفة

METAR: NSTU 060550Z VRB04KT 2SM -SHRA OVC017 26/24 A2979 RMK SLP088 60016 8/1// T02600241 10298 20260 52014

زمن: 19:34 (06:34 UTC)

توقعات

تاريخ ووقت الإصدار 59 دقيقة قبل الساعة 05:35UTC
التوقعات صالحة من06 الساعة 06 UTC إلى 07 الساعة 06 UTC
ريح 6 عقدةمن اتجاهات متغيرة
الرؤية: 10 كم
غيوم متفرقة على ارتفاع 2000 قدم
غيوم مفككة على ارتفاع 4500 قدم
غيوم مفككة على ارتفاع 10000 قدم
زخات في الجوار
مؤقت
من 06 الساعة 06 UTC إلى 06 الساعة 10 UTC
الرؤية: 8.0 كم
غيوم مفككة على ارتفاع 2000 قدم
ملبد بالغيوم على ارتفاع 3500 قدم
زخات من المطر

TAF: NSTU 060535Z 0606/0706 VRB06KT P6SM VCSH SCT020 BKN045 BKN100 TEMPO 0606/0610 5SM SHRA BKN020 OVC035

أرصاد الطقس والتوقعات من أكثر من 4000 مطار (تقارير الطقس للمطار METAR والتنبؤ بالطقس بالمطارTAF).

المحطات المتاحة هي النقط الصفراء والحمراء على الخريطة.

حرك المؤشر فوق النقطة لمعرفة اسم المحطة.

ثم انقر لمعرفة أرصاد وتوقعات الطقس.

لتغيير الخارطة: اضغط على الأزرار الخضراء مع رمز الصليب الأسود للتكبير. على الزر الأخضر مع شرطة للتصغير، أو على الأسهم الخضراء للخرائط المجاورة.


METAR-TAF: